Time;durP1;ratioP1;P1;durP2;ratioP2;P2;SDS_P1;SDS_P2;PMS_P1;PMS_P2;Temp;Humidity;BMP_temperature;BMP_pressure;BME280_temperature;BME280_humidity;BME280_pressure;Samples;Min_cycle;Max_cycle;Signal;HPM_P1;HPM_P2
2023/12/23 00:02:22;;;;;;;;;;;3.60;99.90;;;;;;5094451;28;20009;-77
2023/12/23 00:05:09;;;;;;;;;;;3.70;99.90;;;;;;5097871;28;19955;-78
2023/12/23 00:07:56;;;;;;;;;;;3.80;99.90;;;;;;5107641;28;19992;-77
2023/12/23 00:10:43;;;;;;;;;;;3.80;99.90;;;;;;5093765;28;19952;-77
2023/12/23 00:13:30;;;;;;;;;;;3.90;99.90;;;;;;5093562;28;20011;-78
2023/12/23 00:16:18;;;;;;;;;;;4.00;99.90;;;;;;5106262;28;19927;-78
2023/12/23 00:19:03;;;;;;;;;;;4.00;99.90;;;;;;5093939;28;20012;-78
2023/12/23 00:21:51;;;;;;;;;;;4.00;99.90;;;;;;5091203;28;19923;-79
2023/12/23 00:24:38;;;;;;;;;;;4.00;99.90;;;;;;5107560;27;19945;-77
2023/12/23 00:27:25;;;;;;;;;;;4.10;99.90;;;;;;5113633;27;20325;-77
2023/12/23 00:30:13;;;;;;;;;;;4.10;99.90;;;;;;5089332;28;19916;-78
2023/12/23 00:33:02;;;;;;;;;;;4.00;99.90;;;;;;5107535;27;19911;-78
2023/12/23 00:35:49;;;;;;;;;;;4.10;99.90;;;;;;5104683;28;19927;-78
2023/12/23 00:38:36;;;;;;;;;;;4.10;99.90;;;;;;5104974;28;20313;-78
2023/12/23 00:41:23;;;;;;;;;;;4.10;99.90;;;;;;5105526;28;19912;-77
2023/12/23 00:44:13;;;;;;;;;;;4.00;99.90;;;;;;5107347;28;19965;-78
2023/12/23 00:47:00;;;;;;;;;;;4.00;99.90;;;;;;5095698;28;19974;-78
2023/12/23 00:49:48;;;;;;;;;;;4.00;99.90;;;;;;5107252;28;19912;-77
2023/12/23 00:52:35;;;;;;;;;;;4.10;99.90;;;;;;5102386;28;19922;-77
2023/12/23 00:55:22;;;;;;;;;;;4.10;99.90;;;;;;5095925;28;19912;-77
2023/12/23 00:58:09;;;;;;;;;;;4.10;99.90;;;;;;5109653;28;20548;-78
2023/12/23 01:00:56;;;;;;;;;;;4.00;99.90;;;;;;5099347;28;19912;-78
2023/12/23 01:03:43;;;;;;;;;;;4.00;99.90;;;;;;5099450;28;19924;-78
2023/12/23 01:06:30;;;;;;;;;;;3.80;99.90;;;;;;5098015;28;19919;-80
2023/12/23 01:09:17;;;;;;;;;;;3.10;99.90;;;;;;5105557;28;20325;-78
2023/12/23 01:12:04;;;;;;;;;;;2.80;99.90;;;;;;5102078;28;19926;-77
2023/12/23 01:18:04;;;;;;;;;;;2.60;99.90;;;;;;5087880;28;19916;-77
2023/12/23 01:20:50;;;;;;;;;;;2.70;99.90;;;;;;5084354;28;19929;-78
2023/12/23 01:23:37;;;;;;;;;;;2.70;99.90;;;;;;5084137;28;19951;-78
2023/12/23 01:26:24;;;;;;;;;;;2.60;99.90;;;;;;5083310;28;19916;-78
2023/12/23 01:29:12;;;;;;;;;;;2.60;99.90;;;;;;5086916;28;19912;-78
2023/12/23 01:31:58;;;;;;;;;;;2.70;99.90;;;;;;5083607;28;19986;-79
2023/12/23 01:34:46;;;;;;;;;;;2.80;99.90;;;;;;5073158;28;19920;-79
2023/12/23 01:37:33;;;;;;;;;;;2.80;99.90;;;;;;5068369;28;20008;-79
2023/12/23 01:40:20;;;;;;;;;;;2.90;99.90;;;;;;5050558;28;19913;-77
2023/12/23 01:43:07;;;;;;;;;;;2.90;99.90;;;;;;5046983;28;20317;-78
2023/12/23 01:45:56;;;;;;;;;;;3.00;99.90;;;;;;5055465;28;19970;-78
2023/12/23 01:48:43;;;;;;;;;;;3.00;99.90;;;;;;5049597;28;19917;-78
2023/12/23 01:51:30;;;;;;;;;;;3.10;99.90;;;;;;5050070;28;19916;-79
2023/12/23 01:54:18;;;;;;;;;;;3.20;99.90;;;;;;5057551;28;19938;-79
2023/12/23 01:57:05;;;;;;;;;;;3.30;99.90;;;;;;5057423;28;19916;-79
2023/12/23 01:59:52;;;;;;;;;;;3.40;99.90;;;;;;5070757;28;20236;-78
2023/12/23 02:02:40;;;;;;;;;;;3.40;99.90;;;;;;5051660;28;19917;-79
2023/12/23 02:05:26;;;;;;;;;;;3.40;99.90;;;;;;5063871;28;19923;-77
2023/12/23 02:08:13;;;;;;;;;;;3.50;99.90;;;;;;5050483;28;20348;-78
2023/12/23 02:11:04;;;;;;;;;;;3.50;99.90;;;;;;5054773;28;19912;-77
2023/12/23 02:13:58;;;;;;;;;;;3.50;99.90;;;;;;5046317;28;19923;-78
2023/12/23 02:16:46;;;;;;;;;;;3.50;99.90;;;;;;5063202;28;19920;-77
2023/12/23 02:19:33;;;;;;;;;;;3.60;99.90;;;;;;5058165;28;19924;-77
2023/12/23 02:22:20;;;;;;;;;;;3.60;99.90;;;;;;5059850;28;20334;-78
2023/12/23 02:25:08;;;;;;;;;;;3.60;99.90;;;;;;5060084;28;19917;-78
2023/12/23 02:27:59;;;;;;;;;;;3.60;99.90;;;;;;5061781;28;19912;-77
2023/12/23 02:30:46;;;;;;;;;;;3.60;99.90;;;;;;5076554;28;19923;-79
2023/12/23 02:33:33;;;;;;;;;;;3.70;99.90;;;;;;5060859;28;19913;-78
2023/12/23 02:36:21;;;;;;;;;;;3.60;99.90;;;;;;5055447;28;19927;-77
2023/12/23 02:39:08;;;;;;;;;;;3.70;99.90;;;;;;5064632;28;19912;-77
2023/12/23 02:41:55;;;;;;;;;;;3.70;99.90;;;;;;5064606;28;19985;-77
2023/12/23 02:44:43;;;;;;;;;;;3.70;99.90;;;;;;5048214;28;19940;-77
2023/12/23 02:47:30;;;;;;;;;;;3.70;99.90;;;;;;5070356;28;19981;-76
2023/12/23 02:50:17;;;;;;;;;;;3.70;99.90;;;;;;5059560;28;19924;-77
2023/12/23 02:53:04;;;;;;;;;;;3.70;99.90;;;;;;5062543;28;20466;-77
2023/12/23 02:55:51;;;;;;;;;;;3.80;99.90;;;;;;5061439;28;20206;-78
2023/12/23 02:58:38;;;;;;;;;;;3.80;99.90;;;;;;5060674;28;19917;-78
2023/12/23 03:01:26;;;;;;;;;;;3.80;99.90;;;;;;5046820;28;19920;-77
2023/12/23 03:04:13;;;;;;;;;;;3.80;99.90;;;;;;5064864;28;19962;-77
2023/12/23 03:07:00;;;;;;;;;;;3.80;99.90;;;;;;5068127;28;20003;-77
2023/12/23 03:09:47;;;;;;;;;;;3.80;99.90;;;;;;5046013;28;19974;-78
2023/12/23 03:12:35;;;;;;;;;;;3.90;99.90;;;;;;5048582;28;20276;-77
2023/12/23 03:15:22;;;;;;;;;;;3.90;99.90;;;;;;5066728;28;20326;-79
2023/12/23 03:18:09;;;;;;;;;;;3.90;99.90;;;;;;5055117;28;20322;-79
2023/12/23 03:20:56;;;;;;;;;;;3.90;99.90;;;;;;5073350;28;19916;-79
2023/12/23 03:23:43;;;;;;;;;;;4.00;99.90;;;;;;5054900;28;19916;-77
2023/12/23 03:26:30;;;;;;;;;;;4.00;99.90;;;;;;5070259;28;20214;-77
2023/12/23 03:29:17;;;;;;;;;;;4.00;99.90;;;;;;5066149;28;19943;-77
2023/12/23 03:32:04;;;;;;;;;;;4.00;99.90;;;;;;5076417;28;20203;-77
2023/12/23 03:34:52;;;;;;;;;;;4.00;99.90;;;;;;5075466;28;19922;-77
2023/12/23 03:37:39;;;;;;;;;;;4.10;99.90;;;;;;5108792;28;19919;-77
2023/12/23 03:40:26;;;;;;;;;;;4.10;99.90;;;;;;5091296;28;19916;-77
2023/12/23 03:43:13;;;;;;;;;;;4.10;99.90;;;;;;5086804;28;19912;-78
2023/12/23 03:46:00;;;;;;;;;;;4.20;99.90;;;;;;5105688;27;19917;-78
2023/12/23 03:48:50;;;;;;;;;;;4.20;99.90;;;;;;5135747;27;19922;-77
2023/12/23 03:51:37;;;;;;;;;;;4.20;99.90;;;;;;5112538;28;20006;-78
2023/12/23 03:54:24;;;;;;;;;;;4.30;99.90;;;;;;5120277;28;19991;-78
2023/12/23 03:57:11;;;;;;;;;;;4.30;99.90;;;;;;5102495;28;19923;-77
2023/12/23 03:59:58;;;;;;;;;;;4.30;99.90;;;;;;5098990;28;19912;-77
2023/12/23 04:02:46;;;;;;;;;;;4.30;99.90;;;;;;5105725;28;19916;-78
2023/12/23 04:05:33;;;;;;;;;;;4.40;99.90;;;;;;5119315;28;19928;-76
2023/12/23 04:08:20;;;;;;;;;;;4.40;99.90;;;;;;5103891;28;19911;-77
2023/12/23 04:11:07;;;;;;;;;;;4.40;99.90;;;;;;5118510;28;20045;-77
2023/12/23 04:13:53;;;;;;;;;;;4.40;99.90;;;;;;5118031;28;19912;-77
2023/12/23 04:16:41;;;;;;;;;;;4.40;99.90;;;;;;5118009;28;19975;-77
2023/12/23 04:19:28;;;;;;;;;;;4.40;99.90;;;;;;5114412;28;19922;-77
2023/12/23 04:22:16;;;;;;;;;;;4.40;99.90;;;;;;5111026;28;19961;-77
2023/12/23 04:25:03;;;;;;;;;;;4.40;99.90;;;;;;5126221;27;20320;-77
2023/12/23 04:27:51;;;;;;;;;;;4.40;99.90;;;;;;5104372;28;19916;-78
2023/12/23 04:30:37;;;;;;;;;;;4.40;99.90;;;;;;5111011;28;19953;-78
2023/12/23 04:33:25;;;;;;;;;;;4.40;99.90;;;;;;5100235;28;20244;-77
2023/12/23 04:36:12;;;;;;;;;;;4.40;99.90;;;;;;5121559;27;19930;-78
2023/12/23 04:39:03;;;;;;;;;;;4.40;99.90;;;;;;5101932;28;19920;-78
2023/12/23 04:41:52;;;;;;;;;;;4.30;99.90;;;;;;5111454;27;19922;-79
2023/12/23 04:44:39;;;;;;;;;;;4.30;99.90;;;;;;5102529;28;19916;-78
2023/12/23 04:47:26;;;;;;;;;;;4.20;99.90;;;;;;5104842;27;19920;-77
2023/12/23 04:50:14;;;;;;;;;;;4.20;99.90;;;;;;5120660;27;19916;-78
2023/12/23 04:53:00;;;;;;;;;;;4.10;99.90;;;;;;5103840;28;19915;-77
2023/12/23 04:55:48;;;;;;;;;;;4.10;99.90;;;;;;5097446;28;19911;-78
2023/12/23 04:58:35;;;;;;;;;;;4.00;99.90;;;;;;5098289;28;19965;-77
2023/12/23 05:01:25;;;;;;;;;;;4.00;99.90;;;;;;5097264;28;19969;-77
2023/12/23 05:04:13;;;;;;;;;;;4.00;99.90;;;;;;5109472;28;19977;-78
2023/12/23 05:07:00;;;;;;;;;;;3.80;99.90;;;;;;5097834;28;19912;-78
2023/12/23 05:09:47;;;;;;;;;;;3.80;99.90;;;;;;5097441;28;19913;-77
2023/12/23 05:12:34;;;;;;;;;;;3.80;99.90;;;;;;5113587;28;19919;-78
2023/12/23 05:15:20;;;;;;;;;;;3.80;99.90;;;;;;5116616;28;19912;-78
2023/12/23 05:18:07;;;;;;;;;;;3.80;99.90;;;;;;5116944;28;20240;-77
2023/12/23 05:20:54;;;;;;;;;;;3.80;99.90;;;;;;5099698;28;20317;-77
2023/12/23 05:23:41;;;;;;;;;;;3.70;99.90;;;;;;5118770;28;20297;-78
2023/12/23 05:26:28;;;;;;;;;;;3.80;99.90;;;;;;5103633;28;19912;-77
2023/12/23 05:29:15;;;;;;;;;;;3.80;99.90;;;;;;5084123;28;20003;-77
2023/12/23 05:32:03;;;;;;;;;;;3.80;99.90;;;;;;5110901;28;19912;-77
2023/12/23 05:34:50;;;;;;;;;;;3.80;99.90;;;;;;5117364;28;20007;-79
2023/12/23 05:37:37;;;;;;;;;;;3.80;99.90;;;;;;5102174;28;19919;-77
2023/12/23 05:40:24;;;;;;;;;;;3.70;99.90;;;;;;5096483;28;20256;-77
2023/12/23 05:43:12;;;;;;;;;;;3.70;99.90;;;;;;5106360;28;19995;-77
2023/12/23 05:45:58;;;;;;;;;;;3.70;99.90;;;;;;5096160;28;20350;-77
2023/12/23 05:48:46;;;;;;;;;;;3.60;99.90;;;;;;5096806;28;20252;-77
2023/12/23 05:51:34;;;;;;;;;;;3.50;99.90;;;;;;5103120;28;20316;-78
2023/12/23 05:54:21;;;;;;;;;;;3.50;99.90;;;;;;5099594;28;19916;-78
2023/12/23 05:57:07;;;;;;;;;;;3.40;99.90;;;;;;5093208;28;19915;-77
2023/12/23 05:59:54;;;;;;;;;;;3.50;99.90;;;;;;5098862;28;20397;-77
2023/12/23 06:02:40;;;;;;;;;;;3.50;99.90;;;;;;5088746;28;19939;-77
2023/12/23 06:05:26;;;;;;;;;;;3.50;99.90;;;;;;5101324;28;19912;-77
2023/12/23 06:08:11;;;;;;;;;;;3.40;99.90;;;;;;5116212;28;20323;-78
2023/12/23 06:10:59;;;;;;;;;;;3.40;99.90;;;;;;5102052;28;19915;-76
2023/12/23 06:13:45;;;;;;;;;;;3.40;99.90;;;;;;5100607;28;19916;-77
2023/12/23 06:16:37;;;;;;;;;;;3.50;99.90;;;;;;5103735;28;19927;-76
2023/12/23 06:19:24;;;;;;;;;;;3.50;99.90;;;;;;5116152;28;19923;-77
2023/12/23 06:22:11;;;;;;;;;;;3.50;99.90;;;;;;5116259;28;19922;-76
2023/12/23 06:24:58;;;;;;;;;;;3.50;99.90;;;;;;5101612;28;20296;-77
2023/12/23 06:27:44;;;;;;;;;;;3.50;99.90;;;;;;5113183;28;19923;-77
2023/12/23 06:30:31;;;;;;;;;;;3.50;99.90;;;;;;5105523;28;19912;-77
2023/12/23 06:33:19;;;;;;;;;;;3.50;99.90;;;;;;5102114;28;19969;-77
2023/12/23 06:36:08;;;;;;;;;;;3.60;99.90;;;;;;5115483;28;20354;-77
2023/12/23 06:38:54;;;;;;;;;;;3.60;99.90;;;;;;5101499;28;19989;-77
2023/12/23 06:41:41;;;;;;;;;;;3.60;99.90;;;;;;5100397;28;19912;-77
2023/12/23 06:44:28;;;;;;;;;;;3.70;99.90;;;;;;5116672;28;19920;-77
2023/12/23 06:47:15;;;;;;;;;;;3.70;99.90;;;;;;5116435;28;19922;-77
2023/12/23 06:50:03;;;;;;;;;;;3.60;99.90;;;;;;5090598;28;19995;-77
2023/12/23 06:52:50;;;;;;;;;;;3.70;99.90;;;;;;5100246;28;19912;-77
2023/12/23 06:55:37;;;;;;;;;;;3.70;99.90;;;;;;5088798;28;19912;-77
2023/12/23 06:58:26;;;;;;;;;;;3.80;99.90;;;;;;5096220;28;19916;-77
2023/12/23 07:01:13;;;;;;;;;;;3.70;99.90;;;;;;5098058;28;20392;-77
2023/12/23 07:04:00;;;;;;;;;;;3.70;99.90;;;;;;5100865;28;19912;-77
2023/12/23 07:06:47;;;;;;;;;;;3.70;99.90;;;;;;5095129;28;19912;-77
2023/12/23 07:09:33;;;;;;;;;;;3.60;99.90;;;;;;5104039;28;19919;-77
2023/12/23 07:12:20;;;;;;;;;;;3.70;99.90;;;;;;5095625;28;19912;-77
2023/12/23 07:15:08;;;;;;;;;;;3.70;99.90;;;;;;5097316;28;20336;-77
2023/12/23 07:17:55;;;;;;;;;;;3.80;99.90;;;;;;5103359;28;19920;-76
2023/12/23 07:20:42;;;;;;;;;;;3.80;99.90;;;;;;5104296;28;20016;-76
2023/12/23 07:23:29;;;;;;;;;;;3.80;99.90;;;;;;5100822;28;20319;-77
2023/12/23 07:26:17;;;;;;;;;;;3.90;99.90;;;;;;5102931;28;19916;-77
2023/12/23 07:29:04;;;;;;;;;;;3.90;99.90;;;;;;5119087;28;19912;-77
2023/12/23 07:31:50;;;;;;;;;;;4.00;99.90;;;;;;5105259;28;19912;-77
2023/12/23 07:34:38;;;;;;;;;;;4.00;99.90;;;;;;5118594;28;20007;-77
2023/12/23 07:37:25;;;;;;;;;;;4.00;99.90;;;;;;5120059;28;20022;-77
2023/12/23 07:40:11;;;;;;;;;;;4.00;99.90;;;;;;5107264;28;20347;-77
2023/12/23 07:42:58;;;;;;;;;;;4.00;99.90;;;;;;5098100;28;19924;-77
2023/12/23 07:45:44;;;;;;;;;;;4.00;99.90;;;;;;5113877;28;19968;-78
2023/12/23 07:48:31;;;;;;;;;;;4.00;99.90;;;;;;5105575;28;20030;-79
2023/12/23 07:51:18;;;;;;;;;;;4.00;99.90;;;;;;5087524;28;19973;-78
2023/12/23 07:54:05;;;;;;;;;;;3.90;99.90;;;;;;5100743;28;19912;-78
2023/12/23 07:56:52;;;;;;;;;;;3.90;99.90;;;;;;5095495;28;19976;-78
2023/12/23 07:59:39;;;;;;;;;;;3.90;99.90;;;;;;5117054;28;20309;-79
2023/12/23 08:02:26;;;;;;;;;;;3.90;99.90;;;;;;5099322;28;19924;-77
2023/12/23 08:05:13;;;;;;;;;;;3.80;99.90;;;;;;5092538;28;19912;-78
2023/12/23 08:08:00;;;;;;;;;;;3.80;99.90;;;;;;5118304;28;19912;-76
2023/12/23 08:10:47;;;;;;;;;;;3.60;99.90;;;;;;5098968;28;19912;-77
2023/12/23 08:13:36;;;;;;;;;;;3.60;99.90;;;;;;5106848;28;19912;-77
2023/12/23 08:16:23;;;;;;;;;;;3.70;99.90;;;;;;5118149;28;20331;-77
2023/12/23 08:19:10;;;;;;;;;;;3.60;99.90;;;;;;5097609;28;19916;-77
2023/12/23 08:21:58;;;;;;;;;;;3.60;99.90;;;;;;5103924;28;19946;-77
2023/12/23 08:24:45;;;;;;;;;;;3.60;99.90;;;;;;5104831;28;20282;-77
2023/12/23 08:27:30;;;;;;;;;;;3.60;99.90;;;;;;5100964;28;19981;-77
2023/12/23 08:30:17;;;;;;;;;;;3.50;99.90;;;;;;5118103;28;19912;-77
2023/12/23 08:33:03;;;;;;;;;;;3.60;99.90;;;;;;5117170;28;19969;-77
2023/12/23 08:35:51;;;;;;;;;;;3.60;99.90;;;;;;5104171;28;19988;-78
2023/12/23 08:38:38;;;;;;;;;;;3.60;99.90;;;;;;5117347;28;19984;-77
2023/12/23 08:41:24;;;;;;;;;;;3.60;99.90;;;;;;5117310;28;19912;-77
2023/12/23 08:44:11;;;;;;;;;;;3.60;99.90;;;;;;5100190;28;20232;-77
2023/12/23 08:46:59;;;;;;;;;;;3.70;99.90;;;;;;5082551;28;19973;-76
2023/12/23 08:49:44;;;;;;;;;;;3.60;99.90;;;;;;5117342;28;19911;-76
2023/12/23 08:52:31;;;;;;;;;;;3.60;99.90;;;;;;5112899;28;19999;-77
2023/12/23 08:55:18;;;;;;;;;;;3.60;99.90;;;;;;5116237;28;19911;-75
2023/12/23 08:58:05;;;;;;;;;;;3.70;99.90;;;;;;5116330;28;19916;-76
2023/12/23 09:00:53;;;;;;;;;;;3.70;99.90;;;;;;5093809;28;19911;-75
2023/12/23 09:03:40;;;;;;;;;;;3.70;99.90;;;;;;5116401;28;19919;-75
2023/12/23 09:06:27;;;;;;;;;;;3.70;99.90;;;;;;5113792;28;20309;-75
2023/12/23 09:09:14;;;;;;;;;;;3.70;99.90;;;;;;5102360;28;19972;-75
2023/12/23 09:12:01;;;;;;;;;;;3.80;99.90;;;;;;5109989;28;20309;-75
2023/12/23 09:14:49;;;;;;;;;;;3.80;99.90;;;;;;5116428;28;19912;-76
2023/12/23 09:17:36;;;;;;;;;;;3.80;99.90;;;;;;5103618;28;19920;-76
2023/12/23 09:20:22;;;;;;;;;;;3.80;99.90;;;;;;5104707;28;19916;-75
2023/12/23 09:23:09;;;;;;;;;;;3.80;99.90;;;;;;5116398;28;20319;-76
2023/12/23 09:25:55;;;;;;;;;;;3.80;99.90;;;;;;5094215;28;19982;-76
2023/12/23 09:28:42;;;;;;;;;;;3.80;99.90;;;;;;5115218;28;19912;-75
2023/12/23 09:31:29;;;;;;;;;;;3.80;99.90;;;;;;5110224;28;19923;-75
2023/12/23 09:34:15;;;;;;;;;;;3.80;99.90;;;;;;5099786;28;20282;-75
2023/12/23 09:37:02;;;;;;;;;;;3.80;99.90;;;;;;5116620;28;19982;-77
2023/12/23 09:39:58;;;;;;;;;;;3.80;99.90;;;;;;5113573;28;20039;-77
2023/12/23 09:42:46;;;;;;;;;;;3.80;99.90;;;;;;5103063;28;20247;-78
2023/12/23 09:45:32;;;;;;;;;;;3.80;99.90;;;;;;5117413;28;19927;-76
2023/12/23 09:48:19;;;;;;;;;;;3.80;99.90;;;;;;5093508;28;20328;-76
2023/12/23 09:51:05;;;;;;;;;;;3.70;99.90;;;;;;5091912;28;20315;-76
2023/12/23 09:53:55;;;;;;;;;;;3.60;99.90;;;;;;5095460;28;19912;-75
2023/12/23 09:56:42;;;;;;;;;;;3.60;99.90;;;;;;5101333;28;19915;-74
2023/12/23 09:59:30;;;;;;;;;;;3.60;99.90;;;;;;5098511;28;19912;-74
2023/12/23 10:02:17;;;;;;;;;;;3.50;99.90;;;;;;5113251;28;19912;-75
2023/12/23 10:05:04;;;;;;;;;;;3.50;99.90;;;;;;5094814;28;20346;-75
2023/12/23 10:07:55;;;;;;;;;;;3.50;99.90;;;;;;5112759;28;19994;-76
2023/12/23 10:10:43;;;;;;;;;;;3.40;99.90;;;;;;5104867;28;20383;-75
2023/12/23 10:13:30;;;;;;;;;;;3.30;99.90;;;;;;5101562;28;19912;-76
2023/12/23 10:16:17;;;;;;;;;;;3.20;99.90;;;;;;5111945;28;19913;-76
2023/12/23 10:19:04;;;;;;;;;;;3.10;99.90;;;;;;5103716;28;19916;-76
2023/12/23 10:21:52;;;;;;;;;;;3.10;99.90;;;;;;5110479;28;19965;-76
2023/12/23 10:24:39;;;;;;;;;;;3.00;99.90;;;;;;5114819;28;19911;-75
2023/12/23 10:27:27;;;;;;;;;;;3.00;99.90;;;;;;5095536;28;19916;-75
2023/12/23 10:30:14;;;;;;;;;;;3.00;99.90;;;;;;5093192;28;19939;-76
2023/12/23 10:33:04;;;;;;;;;;;3.10;99.90;;;;;;5094980;28;19923;-76
2023/12/23 10:35:51;;;;;;;;;;;3.00;99.90;;;;;;5092072;28;20008;-76
2023/12/23 10:38:39;;;;;;;;;;;3.00;99.90;;;;;;5107933;28;19924;-76
2023/12/23 10:41:49;;;;;;;;;;;2.90;99.90;;;;;;5097042;28;19920;-77
2023/12/23 10:44:36;;;;;;;;;;;2.80;99.90;;;;;;5108404;28;20364;-77
2023/12/23 10:47:23;;;;;;;;;;;2.70;99.90;;;;;;5093957;28;19912;-77
2023/12/23 10:50:09;;;;;;;;;;;2.80;99.90;;;;;;5094506;28;19922;-77
2023/12/23 10:52:56;;;;;;;;;;;2.70;99.90;;;;;;5095144;28;19927;-77
2023/12/23 10:55:44;;;;;;;;;;;2.60;99.90;;;;;;5115542;28;19912;-77
2023/12/23 10:58:31;;;;;;;;;;;2.50;99.90;;;;;;5102545;28;19916;-77
2023/12/23 11:01:19;;;;;;;;;;;2.40;99.90;;;;;;5101061;28;19918;-77
2023/12/23 11:04:06;;;;;;;;;;;2.40;99.90;;;;;;5114860;28;19973;-77
2023/12/23 11:06:53;;;;;;;;;;;2.40;99.90;;;;;;5100921;28;20316;-77
2023/12/23 11:09:41;;;;;;;;;;;2.30;99.90;;;;;;5080948;28;19919;-77
2023/12/23 11:12:29;;;;;;;;;;;2.40;99.90;;;;;;5114605;28;20316;-77
2023/12/23 11:15:16;;;;;;;;;;;2.30;99.90;;;;;;5100866;28;19911;-77
2023/12/23 11:18:03;;;;;;;;;;;2.30;99.90;;;;;;5114002;28;20073;-77
2023/12/23 11:20:50;;;;;;;;;;;2.20;99.90;;;;;;5115457;28;20308;-77
2023/12/23 11:23:36;;;;;;;;;;;2.30;99.90;;;;;;5100467;28;20343;-77
2023/12/23 11:26:31;;;;;;;;;;;2.30;99.90;;;;;;5080989;28;19913;-77
2023/12/23 11:29:21;;;;;;;;;;;2.30;99.90;;;;;;5095375;28;20229;-77
2023/12/23 11:32:14;;;;;;;;;;;2.30;99.90;;;;;;5081256;28;20283;-77
2023/12/23 11:35:00;;;;;;;;;;;2.30;99.90;;;;;;5093686;28;19999;-77
2023/12/23 11:37:47;;;;;;;;;;;2.30;99.90;;;;;;5103076;28;19923;-77
2023/12/23 11:40:36;;;;;;;;;;;2.30;99.90;;;;;;5112525;28;19939;-77
2023/12/23 11:43:23;;;;;;;;;;;2.30;99.90;;;;;;5114895;28;20046;-77
2023/12/23 11:46:11;;;;;;;;;;;2.30;99.90;;;;;;5114817;28;19923;-77
2023/12/23 11:48:59;;;;;;;;;;;2.30;99.90;;;;;;5108362;28;19923;-77
2023/12/23 11:51:46;;;;;;;;;;;2.30;99.90;;;;;;5092030;28;19916;-77
2023/12/23 11:54:32;;;;;;;;;;;2.30;99.90;;;;;;5093881;28;19912;-77
2023/12/23 11:57:18;;;;;;;;;;;2.40;99.90;;;;;;5102075;28;19925;-77
2023/12/23 12:00:05;;;;;;;;;;;2.30;99.90;;;;;;5099195;28;20329;-77
2023/12/23 12:02:52;;;;;;;;;;;2.30;99.90;;;;;;5116489;27;20313;-77
2023/12/23 12:05:38;;;;;;;;;;;2.40;99.90;;;;;;5099357;28;19947;-78
2023/12/23 12:08:25;;;;;;;;;;;2.40;99.90;;;;;;5113731;27;19912;-77
2023/12/23 12:11:13;;;;;;;;;;;2.40;99.90;;;;;;5112126;27;20210;-78
2023/12/23 12:14:00;;;;;;;;;;;2.40;99.90;;;;;;5123858;27;20212;-78
2023/12/23 12:16:47;;;;;;;;;;;2.40;99.90;;;;;;5102904;28;20022;-78
2023/12/23 12:19:34;;;;;;;;;;;2.40;99.90;;;;;;5136663;27;19911;-79
2023/12/23 12:22:21;;;;;;;;;;;2.50;99.90;;;;;;5140415;27;20399;-78
2023/12/23 12:25:08;;;;;;;;;;;2.50;99.90;;;;;;5086764;28;19912;-78
2023/12/23 12:27:56;;;;;;;;;;;2.50;99.90;;;;;;5107044;28;20281;-78
2023/12/23 12:30:46;;;;;;;;;;;2.50;99.90;;;;;;5105662;28;19972;-78
2023/12/23 12:33:35;;;;;;;;;;;2.60;99.90;;;;;;5117326;28;19912;-78
2023/12/23 12:36:22;;;;;;;;;;;2.60;99.90;;;;;;5083927;28;19927;-78
2023/12/23 12:39:10;;;;;;;;;;;2.70;99.90;;;;;;5107522;28;20369;-78
2023/12/23 12:41:57;;;;;;;;;;;2.70;99.90;;;;;;5105286;28;19999;-78
2023/12/23 12:44:44;;;;;;;;;;;2.80;99.90;;;;;;5114447;28;19912;-78
2023/12/23 12:47:31;;;;;;;;;;;2.90;99.90;;;;;;5084438;28;20229;-79
2023/12/23 12:50:19;;;;;;;;;;;2.90;99.90;;;;;;5096121;28;19911;-78
2023/12/23 12:53:06;;;;;;;;;;;2.90;99.90;;;;;;5098354;28;19912;-79
2023/12/23 12:55:51;;;;;;;;;;;3.00;99.90;;;;;;5100498;28;20317;-77
2023/12/23 12:58:39;;;;;;;;;;;3.10;99.90;;;;;;5103390;28;19955;-77
2023/12/23 13:01:25;;;;;;;;;;;3.20;99.90;;;;;;5113843;28;19912;-78
2023/12/23 13:04:12;;;;;;;;;;;3.20;99.90;;;;;;5108307;28;20312;-77
2023/12/23 13:07:02;;;;;;;;;;;3.30;99.90;;;;;;5103929;28;19950;-77
2023/12/23 13:09:58;;;;;;;;;;;3.30;99.90;;;;;;5117742;28;20013;-77
2023/12/23 13:13:03;;;;;;;;;;;3.30;99.90;;;;;;5102939;28;20336;-77
2023/12/23 13:15:51;;;;;;;;;;;3.40;99.90;;;;;;5113176;28;19950;-76
2023/12/23 13:18:38;;;;;;;;;;;3.50;99.90;;;;;;5103939;28;19920;-77
2023/12/23 13:21:26;;;;;;;;;;;3.50;99.90;;;;;;5101817;28;20020;-77
2023/12/23 13:24:14;;;;;;;;;;;3.60;99.90;;;;;;5116299;28;19912;-77
2023/12/23 13:27:01;;;;;;;;;;;3.60;99.90;;;;;;5116635;28;19922;-77
2023/12/23 13:29:48;;;;;;;;;;;3.70;99.90;;;;;;5103153;28;19998;-77
2023/12/23 13:32:35;;;;;;;;;;;3.80;99.90;;;;;;5114961;28;19911;-78
2023/12/23 13:35:23;;;;;;;;;;;3.80;99.90;;;;;;5116568;28;20290;-77
2023/12/23 13:38:10;;;;;;;;;;;3.80;99.90;;;;;;5109583;28;19920;-77
2023/12/23 13:40:57;;;;;;;;;;;3.80;99.90;;;;;;5097897;28;19912;-77
2023/12/23 13:43:44;;;;;;;;;;;3.90;99.90;;;;;;5099933;28;20244;-78
2023/12/23 13:46:31;;;;;;;;;;;3.90;99.90;;;;;;5098151;28;19977;-76
2023/12/23 13:49:18;;;;;;;;;;;4.00;99.90;;;;;;5096678;28;20321;-77
2023/12/23 13:52:06;;;;;;;;;;;4.00;99.90;;;;;;5100916;28;20328;-78
2023/12/23 13:54:52;;;;;;;;;;;4.00;99.90;;;;;;5102487;28;19947;-77
2023/12/23 13:57:39;;;;;;;;;;;4.00;99.90;;;;;;5115924;28;19919;-77
2023/12/23 14:00:26;;;;;;;;;;;4.00;99.90;;;;;;5102761;28;19912;-77
2023/12/23 14:03:15;;;;;;;;;;;4.00;99.90;;;;;;5116473;28;20367;-77
2023/12/23 14:06:02;;;;;;;;;;;4.10;99.90;;;;;;5085556;28;19977;-76
2023/12/23 14:08:49;;;;;;;;;;;4.10;99.90;;;;;;5116891;28;19912;-77
2023/12/23 14:11:36;;;;;;;;;;;4.00;99.90;;;;;;5087399;28;19929;-76
2023/12/23 14:14:23;;;;;;;;;;;4.10;99.90;;;;;;5096290;28;19912;-77
2023/12/23 14:17:10;;;;;;;;;;;4.10;99.90;;;;;;5089816;28;19915;-77
2023/12/23 14:19:57;;;;;;;;;;;4.10;99.90;;;;;;5097697;28;19922;-77
2023/12/23 14:22:45;;;;;;;;;;;4.10;99.90;;;;;;5097630;28;19912;-78
2023/12/23 14:25:33;;;;;;;;;;;4.10;99.90;;;;;;5115876;28;20351;-79
2023/12/23 14:28:20;;;;;;;;;;;4.20;99.90;;;;;;5094284;28;20238;-78
2023/12/23 14:31:07;;;;;;;;;;;4.20;99.90;;;;;;5104134;28;20260;-77
2023/12/23 14:33:54;;;;;;;;;;;4.20;99.90;;;;;;5112824;28;19916;-77
2023/12/23 14:36:48;;;;;;;;;;;4.20;99.90;;;;;;5088888;28;19920;-77
2023/12/23 14:39:35;;;;;;;;;;;4.20;99.90;;;;;;5095346;28;19912;-79
2023/12/23 14:42:21;;;;;;;;;;;4.20;99.90;;;;;;5095451;28;19912;-77
2023/12/23 14:45:08;;;;;;;;;;;4.30;99.90;;;;;;5076366;28;20363;-79
2023/12/23 14:47:55;;;;;;;;;;;4.30;99.90;;;;;;5075936;28;19962;-77
2023/12/23 14:50:41;;;;;;;;;;;4.30;99.90;;;;;;5089519;28;19941;-78
2023/12/23 14:53:28;;;;;;;;;;;4.30;99.90;;;;;;5081124;28;19912;-78
2023/12/23 14:56:15;;;;;;;;;;;4.30;99.90;;;;;;5095504;28;19923;-78
2023/12/23 14:59:03;;;;;;;;;;;4.40;99.90;;;;;;5093087;28;19992;-78
2023/12/23 15:01:50;;;;;;;;;;;4.40;99.90;;;;;;5083838;28;20046;-79
2023/12/23 15:04:40;;;;;;;;;;;4.40;99.90;;;;;;5081950;28;19916;-77
2023/12/23 15:07:28;;;;;;;;;;;4.40;99.90;;;;;;5079885;28;19912;-77
2023/12/23 15:10:15;;;;;;;;;;;4.40;99.90;;;;;;5085021;28;19981;-78
2023/12/23 15:13:04;;;;;;;;;;;4.40;99.90;;;;;;5079683;28;20233;-77
2023/12/23 15:15:51;;;;;;;;;;;4.50;99.90;;;;;;5080783;28;19912;-76
2023/12/23 15:18:39;;;;;;;;;;;4.50;99.90;;;;;;5071526;28;20003;-77
2023/12/23 15:21:26;;;;;;;;;;;4.50;99.90;;;;;;5089329;28;19912;-78
2023/12/23 15:24:13;;;;;;;;;;;4.50;99.90;;;;;;5089597;28;19916;-77
2023/12/23 15:27:03;;;;;;;;;;;4.50;99.90;;;;;;5086312;28;19924;-77
2023/12/23 15:29:51;;;;;;;;;;;4.50;99.90;;;;;;5074467;28;19913;-77
2023/12/23 15:32:38;;;;;;;;;;;4.60;99.90;;;;;;5091558;28;19920;-79
2023/12/23 15:35:25;;;;;;;;;;;4.60;99.90;;;;;;5101480;28;20293;-77
2023/12/23 15:38:12;;;;;;;;;;;4.60;99.90;;;;;;5118160;28;19962;-77
2023/12/23 15:40:59;;;;;;;;;;;4.60;99.90;;;;;;5109095;28;19912;-77
2023/12/23 15:43:47;;;;;;;;;;;4.60;99.90;;;;;;5097797;28;19916;-77
2023/12/23 15:46:34;;;;;;;;;;;4.60;99.90;;;;;;5083880;28;19919;-77
2023/12/23 15:49:21;;;;;;;;;;;4.60;99.90;;;;;;5106191;28;19922;-77
2023/12/23 15:52:08;;;;;;;;;;;4.70;99.90;;;;;;5105490;28;20010;-78
2023/12/23 15:54:56;;;;;;;;;;;4.60;99.90;;;;;;5099437;28;19912;-78
2023/12/23 15:57:43;;;;;;;;;;;4.60;99.90;;;;;;5104943;28;20017;-78
2023/12/23 16:00:30;;;;;;;;;;;4.60;99.90;;;;;;5111735;28;19977;-76
2023/12/23 16:03:17;;;;;;;;;;;4.60;99.90;;;;;;5103670;28;20370;-76
2023/12/23 16:06:04;;;;;;;;;;;4.70;99.90;;;;;;5099737;28;19942;-79
2023/12/23 16:08:50;;;;;;;;;;;4.70;99.90;;;;;;5118041;28;20008;-77
2023/12/23 16:11:38;;;;;;;;;;;4.70;99.90;;;;;;5111499;28;19926;-77
2023/12/23 16:14:25;;;;;;;;;;;4.70;99.90;;;;;;5083945;28;19923;-77
2023/12/23 16:17:12;;;;;;;;;;;4.70;99.90;;;;;;5083365;28;19916;-78
2023/12/23 16:20:00;;;;;;;;;;;4.80;99.90;;;;;;5097891;28;19924;-77
2023/12/23 16:22:46;;;;;;;;;;;4.80;99.90;;;;;;5099612;28;19912;-78
2023/12/23 16:25:33;;;;;;;;;;;4.70;99.90;;;;;;5095193;28;19912;-79
2023/12/23 16:28:21;;;;;;;;;;;4.80;99.90;;;;;;5116468;28;19912;-78
2023/12/23 16:31:08;;;;;;;;;;;4.80;99.90;;;;;;5104786;28;19912;-78
2023/12/23 16:33:55;;;;;;;;;;;4.80;99.90;;;;;;5090936;28;20348;-78